sensor_id;sensor_type;location;lat;lon;timestamp;P1;durP1;ratioP1;P2;durP2;ratioP2
12687;SDS011;6408;59.388;17.798;2022-12-05T00:01:58;6.57;;;4.20;;
12687;SDS011;6408;59.388;17.798;2022-12-05T00:04:27;4.23;;;3.43;;
12687;SDS011;6408;59.388;17.798;2022-12-05T00:07:01;5.77;;;3.93;;
12687;SDS011;6408;59.388;17.798;2022-12-05T00:09:30;5.33;;;3.80;;
12687;SDS011;6408;59.388;17.798;2022-12-05T00:12:01;4.13;;;3.33;;
12687;SDS011;6408;59.388;17.798;2022-12-05T00:14:32;3.73;;;3.20;;
12687;SDS011;6408;59.388;17.798;2022-12-05T00:17:06;7.60;;;4.60;;
12687;SDS011;6408;59.388;17.798;2022-12-05T00:19:36;5.20;;;3.77;;
12687;SDS011;6408;59.388;17.798;2022-12-05T00:22:07;4.03;;;3.33;;
12687;SDS011;6408;59.388;17.798;2022-12-05T00:24:35;4.97;;;3.73;;
12687;SDS011;6408;59.388;17.798;2022-12-05T00:27:03;4.00;;;3.37;;
12687;SDS011;6408;59.388;17.798;2022-12-05T00:29:30;4.23;;;3.40;;
12687;SDS011;6408;59.388;17.798;2022-12-05T00:31:57;5.37;;;4.00;;
12687;SDS011;6408;59.388;17.798;2022-12-05T00:34:30;4.43;;;3.43;;
12687;SDS011;6408;59.388;17.798;2022-12-05T00:36:58;4.67;;;3.70;;
12687;SDS011;6408;59.388;17.798;2022-12-05T00:42:18;4.77;;;3.63;;
12687;SDS011;6408;59.388;17.798;2022-12-05T00:44:47;4.40;;;3.20;;
12687;SDS011;6408;59.388;17.798;2022-12-05T00:47:22;3.97;;;3.07;;
12687;SDS011;6408;59.388;17.798;2022-12-05T00:49:53;3.37;;;2.90;;
12687;SDS011;6408;59.388;17.798;2022-12-05T00:52:24;3.20;;;2.80;;
12687;SDS011;6408;59.388;17.798;2022-12-05T00:54:55;3.40;;;2.77;;
12687;SDS011;6408;59.388;17.798;2022-12-05T00:57:22;4.30;;;2.90;;
12687;SDS011;6408;59.388;17.798;2022-12-05T01:00:08;4.40;;;2.90;;
12687;SDS011;6408;59.388;17.798;2022-12-05T01:02:46;4.23;;;3.07;;
12687;SDS011;6408;59.388;17.798;2022-12-05T01:05:36;3.17;;;2.60;;
12687;SDS011;6408;59.388;17.798;2022-12-05T01:08:04;3.07;;;2.57;;
12687;SDS011;6408;59.388;17.798;2022-12-05T01:13:44;3.57;;;2.70;;
12687;SDS011;6408;59.388;17.798;2022-12-05T01:16:22;3.37;;;2.87;;
12687;SDS011;6408;59.388;17.798;2022-12-05T01:18:55;3.30;;;3.00;;
12687;SDS011;6408;59.388;17.798;2022-12-05T01:21:33;4.50;;;2.90;;
12687;SDS011;6408;59.388;17.798;2022-12-05T01:24:01;3.90;;;3.23;;
12687;SDS011;6408;59.388;17.798;2022-12-05T01:26:29;3.20;;;2.50;;
12687;SDS011;6408;59.388;17.798;2022-12-05T01:28:59;4.53;;;3.30;;
12687;SDS011;6408;59.388;17.798;2022-12-05T01:31:43;4.30;;;3.30;;
12687;SDS011;6408;59.388;17.798;2022-12-05T01:34:13;4.20;;;3.30;;
12687;SDS011;6408;59.388;17.798;2022-12-05T01:36:53;4.73;;;3.50;;
12687;SDS011;6408;59.388;17.798;2022-12-05T01:39:21;3.87;;;2.93;;
12687;SDS011;6408;59.388;17.798;2022-12-05T01:41:56;4.07;;;3.23;;
12687;SDS011;6408;59.388;17.798;2022-12-05T01:47:44;4.50;;;3.43;;
12687;SDS011;6408;59.388;17.798;2022-12-05T01:50:17;3.97;;;3.33;;
12687;SDS011;6408;59.388;17.798;2022-12-05T01:52:53;5.53;;;3.90;;
12687;SDS011;6408;59.388;17.798;2022-12-05T01:55:20;4.37;;;3.33;;
12687;SDS011;6408;59.388;17.798;2022-12-05T01:57:49;4.27;;;3.43;;
12687;SDS011;6408;59.388;17.798;2022-12-05T02:00:18;5.40;;;4.20;;
12687;SDS011;6408;59.388;17.798;2022-12-05T02:02:53;4.63;;;3.60;;
12687;SDS011;6408;59.388;17.798;2022-12-05T02:05:37;5.33;;;3.63;;
12687;SDS011;6408;59.388;17.798;2022-12-05T02:08:11;4.80;;;3.70;;
12687;SDS011;6408;59.388;17.798;2022-12-05T02:10:40;5.27;;;3.90;;
12687;SDS011;6408;59.388;17.798;2022-12-05T02:13:28;6.00;;;4.03;;
12687;SDS011;6408;59.388;17.798;2022-12-05T02:16:10;5.43;;;3.73;;
12687;SDS011;6408;59.388;17.798;2022-12-05T02:18:52;4.70;;;3.67;;
12687;SDS011;6408;59.388;17.798;2022-12-05T02:24:32;4.20;;;3.63;;
12687;SDS011;6408;59.388;17.798;2022-12-05T02:27:26;5.90;;;3.93;;
12687;SDS011;6408;59.388;17.798;2022-12-05T02:30:18;5.13;;;3.40;;
12687;SDS011;6408;59.388;17.798;2022-12-05T02:32:51;4.90;;;3.73;;
12687;SDS011;6408;59.388;17.798;2022-12-05T02:35:36;5.47;;;4.20;;
12687;SDS011;6408;59.388;17.798;2022-12-05T02:38:20;4.37;;;3.63;;
12687;SDS011;6408;59.388;17.798;2022-12-05T02:40:58;4.77;;;3.50;;
12687;SDS011;6408;59.388;17.798;2022-12-05T02:43:36;5.67;;;3.80;;
12687;SDS011;6408;59.388;17.798;2022-12-05T02:46:18;4.53;;;3.60;;
12687;SDS011;6408;59.388;17.798;2022-12-05T02:48:53;5.23;;;3.90;;
12687;SDS011;6408;59.388;17.798;2022-12-05T02:51:40;5.13;;;3.60;;
12687;SDS011;6408;59.388;17.798;2022-12-05T02:54:11;4.43;;;3.33;;
12687;SDS011;6408;59.388;17.798;2022-12-05T02:56:45;6.47;;;3.77;;
12687;SDS011;6408;59.388;17.798;2022-12-05T02:59:15;5.63;;;3.83;;
12687;SDS011;6408;59.388;17.798;2022-12-05T03:02:08;5.77;;;3.77;;
12687;SDS011;6408;59.388;17.798;2022-12-05T03:04:49;5.73;;;4.40;;
12687;SDS011;6408;59.388;17.798;2022-12-05T03:07:20;5.33;;;4.13;;
12687;SDS011;6408;59.388;17.798;2022-12-05T03:10:03;4.27;;;3.67;;
12687;SDS011;6408;59.388;17.798;2022-12-05T03:12:41;5.17;;;4.03;;
12687;SDS011;6408;59.388;17.798;2022-12-05T03:15:19;6.37;;;4.07;;
12687;SDS011;6408;59.388;17.798;2022-12-05T03:17:56;6.10;;;4.13;;
12687;SDS011;6408;59.388;17.798;2022-12-05T03:20:32;5.97;;;3.90;;
12687;SDS011;6408;59.388;17.798;2022-12-05T03:23:24;4.93;;;3.70;;
12687;SDS011;6408;59.388;17.798;2022-12-05T03:26:14;6.23;;;4.60;;
12687;SDS011;6408;59.388;17.798;2022-12-05T03:29:01;8.00;;;4.07;;
12687;SDS011;6408;59.388;17.798;2022-12-05T03:31:49;5.27;;;4.07;;
12687;SDS011;6408;59.388;17.798;2022-12-05T03:34:40;6.23;;;4.10;;
12687;SDS011;6408;59.388;17.798;2022-12-05T03:37:32;5.80;;;4.33;;
12687;SDS011;6408;59.388;17.798;2022-12-05T03:40:20;5.67;;;4.27;;
12687;SDS011;6408;59.388;17.798;2022-12-05T03:42:56;7.70;;;4.30;;
12687;SDS011;6408;59.388;17.798;2022-12-05T03:45:42;6.60;;;4.07;;
12687;SDS011;6408;59.388;17.798;2022-12-05T03:48:26;7.17;;;4.63;;
12687;SDS011;6408;59.388;17.798;2022-12-05T03:51:05;6.13;;;4.33;;
12687;SDS011;6408;59.388;17.798;2022-12-05T03:53:36;5.73;;;3.93;;
12687;SDS011;6408;59.388;17.798;2022-12-05T03:56:14;5.07;;;4.10;;
12687;SDS011;6408;59.388;17.798;2022-12-05T03:59:01;5.37;;;4.37;;
12687;SDS011;6408;59.388;17.798;2022-12-05T04:01:34;6.27;;;4.27;;
12687;SDS011;6408;59.388;17.798;2022-12-05T04:04:07;4.90;;;3.70;;
12687;SDS011;6408;59.388;17.798;2022-12-05T04:06:52;5.40;;;4.10;;
12687;SDS011;6408;59.388;17.798;2022-12-05T04:09:30;6.03;;;4.03;;
12687;SDS011;6408;59.388;17.798;2022-12-05T04:12:04;4.63;;;3.50;;
12687;SDS011;6408;59.388;17.798;2022-12-05T04:14:38;4.83;;;3.90;;
12687;SDS011;6408;59.388;17.798;2022-12-05T04:17:10;5.73;;;4.07;;
12687;SDS011;6408;59.388;17.798;2022-12-05T04:19:43;5.13;;;4.23;;
12687;SDS011;6408;59.388;17.798;2022-12-05T04:22:35;4.90;;;3.80;;
12687;SDS011;6408;59.388;17.798;2022-12-05T04:25:08;5.57;;;3.93;;
12687;SDS011;6408;59.388;17.798;2022-12-05T04:28:08;5.07;;;3.83;;
12687;SDS011;6408;59.388;17.798;2022-12-05T04:30:53;4.80;;;3.47;;
12687;SDS011;6408;59.388;17.798;2022-12-05T04:33:33;5.37;;;3.47;;
12687;SDS011;6408;59.388;17.798;2022-12-05T04:36:21;7.40;;;3.77;;
12687;SDS011;6408;59.388;17.798;2022-12-05T04:39:11;5.20;;;3.97;;
12687;SDS011;6408;59.388;17.798;2022-12-05T04:41:50;6.07;;;3.60;;
12687;SDS011;6408;59.388;17.798;2022-12-05T04:44:20;8.37;;;4.07;;
12687;SDS011;6408;59.388;17.798;2022-12-05T04:46:59;7.90;;;3.90;;
12687;SDS011;6408;59.388;17.798;2022-12-05T04:49:31;9.60;;;3.70;;
12687;SDS011;6408;59.388;17.798;2022-12-05T04:52:06;6.70;;;4.47;;
12687;SDS011;6408;59.388;17.798;2022-12-05T04:54:39;5.13;;;4.17;;
12687;SDS011;6408;59.388;17.798;2022-12-05T04:57:13;5.53;;;3.70;;
12687;SDS011;6408;59.388;17.798;2022-12-05T04:59:58;11.27;;;3.97;;
12687;SDS011;6408;59.388;17.798;2022-12-05T05:02:30;4.50;;;3.70;;
12687;SDS011;6408;59.388;17.798;2022-12-05T05:05:11;9.27;;;3.80;;
12687;SDS011;6408;59.388;17.798;2022-12-05T05:07:50;8.47;;;3.77;;
12687;SDS011;6408;59.388;17.798;2022-12-05T05:10:24;8.73;;;3.97;;
12687;SDS011;6408;59.388;17.798;2022-12-05T05:13:06;6.40;;;4.20;;
12687;SDS011;6408;59.388;17.798;2022-12-05T05:15:40;9.47;;;4.43;;
12687;SDS011;6408;59.388;17.798;2022-12-05T05:18:10;8.83;;;4.73;;
12687;SDS011;6408;59.388;17.798;2022-12-05T05:20:40;6.90;;;4.20;;
12687;SDS011;6408;59.388;17.798;2022-12-05T05:23:12;11.53;;;5.10;;
12687;SDS011;6408;59.388;17.798;2022-12-05T05:25:42;10.33;;;4.70;;
12687;SDS011;6408;59.388;17.798;2022-12-05T05:28:09;12.03;;;5.00;;
12687;SDS011;6408;59.388;17.798;2022-12-05T05:30:38;12.50;;;4.93;;
12687;SDS011;6408;59.388;17.798;2022-12-05T05:33:06;11.83;;;5.50;;
12687;SDS011;6408;59.388;17.798;2022-12-05T05:35:36;8.87;;;4.93;;
12687;SDS011;6408;59.388;17.798;2022-12-05T05:38:15;13.47;;;5.77;;
12687;SDS011;6408;59.388;17.798;2022-12-05T05:40:52;6.77;;;4.40;;
12687;SDS011;6408;59.388;17.798;2022-12-05T05:43:22;11.40;;;4.97;;
12687;SDS011;6408;59.388;17.798;2022-12-05T05:45:55;8.00;;;4.93;;
12687;SDS011;6408;59.388;17.798;2022-12-05T05:48:24;8.57;;;4.87;;
12687;SDS011;6408;59.388;17.798;2022-12-05T05:50:54;9.67;;;5.07;;
12687;SDS011;6408;59.388;17.798;2022-12-05T05:53:40;8.30;;;4.70;;
12687;SDS011;6408;59.388;17.798;2022-12-05T05:56:33;9.47;;;4.10;;
12687;SDS011;6408;59.388;17.798;2022-12-05T05:59:08;8.50;;;4.83;;
12687;SDS011;6408;59.388;17.798;2022-12-05T06:01:43;7.33;;;4.07;;
12687;SDS011;6408;59.388;17.798;2022-12-05T06:04:12;7.03;;;4.00;;
12687;SDS011;6408;59.388;17.798;2022-12-05T06:06:40;6.77;;;4.53;;
12687;SDS011;6408;59.388;17.798;2022-12-05T06:09:11;5.27;;;3.60;;
12687;SDS011;6408;59.388;17.798;2022-12-05T06:11:40;9.87;;;3.97;;
12687;SDS011;6408;59.388;17.798;2022-12-05T06:14:08;5.40;;;3.53;;
12687;SDS011;6408;59.388;17.798;2022-12-05T06:16:38;7.90;;;3.87;;
12687;SDS011;6408;59.388;17.798;2022-12-05T06:19:10;6.77;;;3.93;;
12687;SDS011;6408;59.388;17.798;2022-12-05T06:21:48;7.50;;;3.70;;
12687;SDS011;6408;59.388;17.798;2022-12-05T06:24:19;5.60;;;3.63;;
12687;SDS011;6408;59.388;17.798;2022-12-05T06:26:50;7.23;;;4.07;;
12687;SDS011;6408;59.388;17.798;2022-12-05T06:29:41;10.63;;;4.13;;
12687;SDS011;6408;59.388;17.798;2022-12-05T06:32:10;9.90;;;5.43;;
12687;SDS011;6408;59.388;17.798;2022-12-05T06:34:40;10.27;;;5.37;;
12687;SDS011;6408;59.388;17.798;2022-12-05T06:37:15;7.87;;;5.13;;
12687;SDS011;6408;59.388;17.798;2022-12-05T06:39:43;7.70;;;4.57;;
12687;SDS011;6408;59.388;17.798;2022-12-05T06:42:14;9.07;;;4.70;;
12687;SDS011;6408;59.388;17.798;2022-12-05T06:44:57;15.13;;;4.57;;
12687;SDS011;6408;59.388;17.798;2022-12-05T06:47:26;6.17;;;4.20;;
12687;SDS011;6408;59.388;17.798;2022-12-05T06:50:03;6.97;;;4.33;;
12687;SDS011;6408;59.388;17.798;2022-12-05T06:52:49;8.83;;;4.13;;
12687;SDS011;6408;59.388;17.798;2022-12-05T06:55:19;10.47;;;4.40;;
12687;SDS011;6408;59.388;17.798;2022-12-05T06:58:01;9.57;;;3.90;;
12687;SDS011;6408;59.388;17.798;2022-12-05T07:00:31;7.10;;;4.23;;
12687;SDS011;6408;59.388;17.798;2022-12-05T07:03:21;11.53;;;4.17;;
12687;SDS011;6408;59.388;17.798;2022-12-05T07:05:51;8.00;;;4.63;;
12687;SDS011;6408;59.388;17.798;2022-12-05T07:08:19;8.63;;;4.53;;
12687;SDS011;6408;59.388;17.798;2022-12-05T07:10:58;9.73;;;5.03;;
12687;SDS011;6408;59.388;17.798;2022-12-05T07:13:40;11.10;;;5.33;;
12687;SDS011;6408;59.388;17.798;2022-12-05T07:16:13;7.80;;;3.50;;
12687;SDS011;6408;59.388;17.798;2022-12-05T07:18:44;7.63;;;3.97;;
12687;SDS011;6408;59.388;17.798;2022-12-05T07:21:19;10.53;;;4.70;;
12687;SDS011;6408;59.388;17.798;2022-12-05T07:23:47;6.80;;;4.40;;
12687;SDS011;6408;59.388;17.798;2022-12-05T07:26:20;7.63;;;4.20;;
12687;SDS011;6408;59.388;17.798;2022-12-05T07:28:54;5.87;;;4.27;;
12687;SDS011;6408;59.388;17.798;2022-12-05T07:31:25;4.23;;;3.17;;
12687;SDS011;6408;59.388;17.798;2022-12-05T07:33:56;8.90;;;4.57;;
12687;SDS011;6408;59.388;17.798;2022-12-05T07:36:29;6.57;;;3.80;;
12687;SDS011;6408;59.388;17.798;2022-12-05T07:39:13;5.90;;;4.13;;
12687;SDS011;6408;59.388;17.798;2022-12-05T07:41:44;7.73;;;4.70;;
12687;SDS011;6408;59.388;17.798;2022-12-05T07:44:24;8.70;;;4.87;;
12687;SDS011;6408;59.388;17.798;2022-12-05T07:46:53;7.07;;;4.73;;
12687;SDS011;6408;59.388;17.798;2022-12-05T07:49:20;6.60;;;4.93;;
12687;SDS011;6408;59.388;17.798;2022-12-05T07:51:52;8.47;;;4.60;;
12687;SDS011;6408;59.388;17.798;2022-12-05T07:54:22;6.43;;;3.60;;
12687;SDS011;6408;59.388;17.798;2022-12-05T07:56:54;7.63;;;4.30;;
12687;SDS011;6408;59.388;17.798;2022-12-05T07:59:34;10.43;;;4.70;;
12687;SDS011;6408;59.388;17.798;2022-12-05T08:02:02;4.57;;;3.93;;
12687;SDS011;6408;59.388;17.798;2022-12-05T08:04:37;4.23;;;3.30;;
12687;SDS011;6408;59.388;17.798;2022-12-05T08:07:04;6.50;;;3.27;;
12687;SDS011;6408;59.388;17.798;2022-12-05T08:09:32;4.80;;;3.07;;
12687;SDS011;6408;59.388;17.798;2022-12-05T08:12:02;7.10;;;3.30;;
12687;SDS011;6408;59.388;17.798;2022-12-05T08:14:31;7.07;;;3.93;;
12687;SDS011;6408;59.388;17.798;2022-12-05T08:17:01;7.57;;;3.80;;
12687;SDS011;6408;59.388;17.798;2022-12-05T08:19:31;6.00;;;3.73;;
12687;SDS011;6408;59.388;17.798;2022-12-05T08:22:00;8.50;;;3.90;;
12687;SDS011;6408;59.388;17.798;2022-12-05T08:24:28;5.73;;;3.77;;
12687;SDS011;6408;59.388;17.798;2022-12-05T08:26:56;7.17;;;4.10;;
12687;SDS011;6408;59.388;17.798;2022-12-05T08:29:26;4.37;;;3.70;;
12687;SDS011;6408;59.388;17.798;2022-12-05T08:32:02;3.90;;;3.03;;
12687;SDS011;6408;59.388;17.798;2022-12-05T08:34:37;5.87;;;3.17;;
12687;SDS011;6408;59.388;17.798;2022-12-05T08:37:05;6.70;;;3.63;;
12687;SDS011;6408;59.388;17.798;2022-12-05T08:39:35;5.43;;;3.40;;
12687;SDS011;6408;59.388;17.798;2022-12-05T08:42:05;4.63;;;3.43;;
12687;SDS011;6408;59.388;17.798;2022-12-05T08:44:34;3.83;;;3.07;;
12687;SDS011;6408;59.388;17.798;2022-12-05T08:50:37;4.57;;;2.80;;
12687;SDS011;6408;59.388;17.798;2022-12-05T08:53:10;5.20;;;3.13;;
12687;SDS011;6408;59.388;17.798;2022-12-05T08:55:40;4.90;;;3.20;;
12687;SDS011;6408;59.388;17.798;2022-12-05T08:58:09;3.67;;;3.23;;
12687;SDS011;6408;59.388;17.798;2022-12-05T09:00:37;5.50;;;3.60;;
12687;SDS011;6408;59.388;17.798;2022-12-05T09:03:25;3.57;;;2.80;;
12687;SDS011;6408;59.388;17.798;2022-12-05T09:05:53;4.77;;;3.20;;
12687;SDS011;6408;59.388;17.798;2022-12-05T09:08:20;3.80;;;2.90;;
12687;SDS011;6408;59.388;17.798;2022-12-05T09:10:49;4.07;;;2.80;;
12687;SDS011;6408;59.388;17.798;2022-12-05T09:13:16;4.43;;;3.13;;
12687;SDS011;6408;59.388;17.798;2022-12-05T09:15:44;4.40;;;2.87;;
12687;SDS011;6408;59.388;17.798;2022-12-05T09:18:17;3.97;;;3.23;;
12687;SDS011;6408;59.388;17.798;2022-12-05T09:20:47;5.30;;;3.30;;
12687;SDS011;6408;59.388;17.798;2022-12-05T09:23:16;5.63;;;3.57;;
12687;SDS011;6408;59.388;17.798;2022-12-05T09:26:18;4.33;;;3.30;;
12687;SDS011;6408;59.388;17.798;2022-12-05T09:28:51;5.20;;;3.00;;
12687;SDS011;6408;59.388;17.798;2022-12-05T09:31:22;8.03;;;3.37;;
12687;SDS011;6408;59.388;17.798;2022-12-05T09:33:53;5.87;;;2.87;;
12687;SDS011;6408;59.388;17.798;2022-12-05T09:36:24;6.10;;;3.27;;
12687;SDS011;6408;59.388;17.798;2022-12-05T09:39:05;6.53;;;3.13;;
12687;SDS011;6408;59.388;17.798;2022-12-05T09:41:40;9.63;;;3.43;;
12687;SDS011;6408;59.388;17.798;2022-12-05T09:47:57;6.73;;;3.40;;
12687;SDS011;6408;59.388;17.798;2022-12-05T09:50:33;5.67;;;3.17;;
12687;SDS011;6408;59.388;17.798;2022-12-05T09:53:23;5.47;;;2.70;;
12687;SDS011;6408;59.388;17.798;2022-12-05T09:55:59;4.70;;;3.47;;
12687;SDS011;6408;59.388;17.798;2022-12-05T09:58:39;8.30;;;3.17;;
12687;SDS011;6408;59.388;17.798;2022-12-05T10:01:11;8.00;;;3.63;;
12687;SDS011;6408;59.388;17.798;2022-12-05T10:03:57;11.27;;;5.33;;
12687;SDS011;6408;59.388;17.798;2022-12-05T10:06:35;5.87;;;4.23;;
12687;SDS011;6408;59.388;17.798;2022-12-05T10:09:13;6.17;;;4.03;;
12687;SDS011;6408;59.388;17.798;2022-12-05T10:15:00;4.77;;;2.97;;
12687;SDS011;6408;59.388;17.798;2022-12-05T10:17:39;6.57;;;3.27;;
12687;SDS011;6408;59.388;17.798;2022-12-05T10:20:14;3.63;;;2.57;;
12687;SDS011;6408;59.388;17.798;2022-12-05T10:22:45;10.63;;;2.97;;
12687;SDS011;6408;59.388;17.798;2022-12-05T10:28:09;5.23;;;2.80;;
12687;SDS011;6408;59.388;17.798;2022-12-05T10:30:53;4.53;;;2.80;;
12687;SDS011;6408;59.388;17.798;2022-12-05T10:33:27;3.83;;;2.80;;
12687;SDS011;6408;59.388;17.798;2022-12-05T10:36:01;6.80;;;3.00;;
12687;SDS011;6408;59.388;17.798;2022-12-05T10:38:35;5.70;;;3.10;;
12687;SDS011;6408;59.388;17.798;2022-12-05T10:41:09;5.73;;;3.53;;
12687;SDS011;6408;59.388;17.798;2022-12-05T10:43:42;4.73;;;3.50;;
12687;SDS011;6408;59.388;17.798;2022-12-05T10:46:21;5.33;;;3.30;;
12687;SDS011;6408;59.388;17.798;2022-12-05T10:48:48;5.83;;;3.77;;
12687;SDS011;6408;59.388;17.798;2022-12-05T10:51:17;5.37;;;3.27;;
12687;SDS011;6408;59.388;17.798;2022-12-05T10:53:49;5.77;;;3.30;;
12687;SDS011;6408;59.388;17.798;2022-12-05T10:56:39;4.90;;;3.33;;
12687;SDS011;6408;59.388;17.798;2022-12-05T10:59:23;5.43;;;3.63;;
12687;SDS011;6408;59.388;17.798;2022-12-05T11:02:17;9.63;;;3.23;;
12687;SDS011;6408;59.388;17.798;2022-12-05T11:04:53;5.73;;;3.10;;
12687;SDS011;6408;59.388;17.798;2022-12-05T11:07:23;9.37;;;3.40;;
12687;SDS011;6408;59.388;17.798;2022-12-05T11:09:55;5.27;;;3.37;;
12687;SDS011;6408;59.388;17.798;2022-12-05T11:12:27;5.37;;;3.50;;
12687;SDS011;6408;59.388;17.798;2022-12-05T11:15:18;3.87;;;3.17;;
12687;SDS011;6408;59.388;17.798;2022-12-05T11:17:58;7.17;;;3.40;;
12687;SDS011;6408;59.388;17.798;2022-12-05T11:20:54;7.07;;;4.27;;
12687;SDS011;6408;59.388;17.798;2022-12-05T11:23:31;6.13;;;3.97;;
12687;SDS011;6408;59.388;17.798;2022-12-05T11:26:13;5.77;;;3.87;;
12687;SDS011;6408;59.388;17.798;2022-12-05T11:32:15;6.73;;;3.87;;
12687;SDS011;6408;59.388;17.798;2022-12-05T11:35:03;4.57;;;3.53;;
12687;SDS011;6408;59.388;17.798;2022-12-05T11:38:12;10.10;;;3.33;;
12687;SDS011;6408;59.388;17.798;2022-12-05T11:44:21;5.63;;;3.80;;
12687;SDS011;6408;59.388;17.798;2022-12-05T11:47:26;6.03;;;3.53;;
12687;SDS011;6408;59.388;17.798;2022-12-05T11:50:34;7.03;;;4.17;;
12687;SDS011;6408;59.388;17.798;2022-12-05T11:53:38;5.13;;;3.83;;
12687;SDS011;6408;59.388;17.798;2022-12-05T11:56:43;11.63;;;4.33;;
12687;SDS011;6408;59.388;17.798;2022-12-05T11:59:28;5.70;;;3.47;;
12687;SDS011;6408;59.388;17.798;2022-12-05T12:02:21;8.10;;;4.07;;
12687;SDS011;6408;59.388;17.798;2022-12-05T12:05:13;9.50;;;3.90;;
12687;SDS011;6408;59.388;17.798;2022-12-05T12:07:55;11.23;;;5.27;;
12687;SDS011;6408;59.388;17.798;2022-12-05T12:13:40;6.80;;;4.07;;
12687;SDS011;6408;59.388;17.798;2022-12-05T12:16:45;8.17;;;3.80;;
12687;SDS011;6408;59.388;17.798;2022-12-05T12:19:37;8.10;;;3.70;;
12687;SDS011;6408;59.388;17.798;2022-12-05T12:22:29;7.87;;;3.93;;
12687;SDS011;6408;59.388;17.798;2022-12-05T12:25:23;7.30;;;3.53;;
12687;SDS011;6408;59.388;17.798;2022-12-05T12:28:13;10.63;;;3.90;;
12687;SDS011;6408;59.388;17.798;2022-12-05T12:31:14;7.93;;;3.93;;
12687;SDS011;6408;59.388;17.798;2022-12-05T12:34:18;11.90;;;5.40;;
12687;SDS011;6408;59.388;17.798;2022-12-05T12:37:15;7.37;;;4.27;;
12687;SDS011;6408;59.388;17.798;2022-12-05T12:39:51;7.10;;;4.10;;
12687;SDS011;6408;59.388;17.798;2022-12-05T12:45:20;7.10;;;4.10;;
12687;SDS011;6408;59.388;17.798;2022-12-05T12:48:38;11.07;;;4.47;;
12687;SDS011;6408;59.388;17.798;2022-12-05T12:51:25;10.67;;;4.30;;
12687;SDS011;6408;59.388;17.798;2022-12-05T12:57:00;8.33;;;3.77;;
12687;SDS011;6408;59.388;17.798;2022-12-05T12:59:53;6.87;;;3.60;;
12687;SDS011;6408;59.388;17.798;2022-12-05T13:02:30;6.47;;;3.80;;
12687;SDS011;6408;59.388;17.798;2022-12-05T13:08:05;10.60;;;3.90;;
12687;SDS011;6408;59.388;17.798;2022-12-05T13:10:43;6.80;;;4.10;;
12687;SDS011;6408;59.388;17.798;2022-12-05T13:13:13;6.87;;;4.97;;
12687;SDS011;6408;59.388;17.798;2022-12-05T13:15:46;11.57;;;3.60;;
12687;SDS011;6408;59.388;17.798;2022-12-05T13:18:19;10.07;;;4.50;;
12687;SDS011;6408;59.388;17.798;2022-12-05T13:20:52;5.43;;;3.90;;
12687;SDS011;6408;59.388;17.798;2022-12-05T13:23:29;8.47;;;4.30;;
12687;SDS011;6408;59.388;17.798;2022-12-05T13:26:00;8.80;;;4.33;;
12687;SDS011;6408;59.388;17.798;2022-12-05T13:28:39;4.27;;;3.37;;
12687;SDS011;6408;59.388;17.798;2022-12-05T13:31:16;8.43;;;3.83;;
12687;SDS011;6408;59.388;17.798;2022-12-05T13:34:04;4.83;;;3.43;;
12687;SDS011;6408;59.388;17.798;2022-12-05T13:37:20;8.90;;;3.80;;
12687;SDS011;6408;59.388;17.798;2022-12-05T13:40:17;7.97;;;3.83;;
12687;SDS011;6408;59.388;17.798;2022-12-05T13:43:17;4.60;;;3.60;;
12687;SDS011;6408;59.388;17.798;2022-12-05T13:46:00;6.70;;;3.40;;
12687;SDS011;6408;59.388;17.798;2022-12-05T13:48:32;6.43;;;3.73;;
12687;SDS011;6408;59.388;17.798;2022-12-05T13:51:07;5.17;;;3.50;;
12687;SDS011;6408;59.388;17.798;2022-12-05T13:53:45;4.77;;;3.40;;
12687;SDS011;6408;59.388;17.798;2022-12-05T13:56:26;8.57;;;4.00;;
12687;SDS011;6408;59.388;17.798;2022-12-05T14:02:45;7.57;;;3.30;;
12687;SDS011;6408;59.388;17.798;2022-12-05T14:05:34;7.50;;;3.00;;
12687;SDS011;6408;59.388;17.798;2022-12-05T14:11:11;9.70;;;3.60;;
12687;SDS011;6408;59.388;17.798;2022-12-05T14:13:50;5.67;;;3.43;;
12687;SDS011;6408;59.388;17.798;2022-12-05T14:19:33;6.23;;;4.07;;
12687;SDS011;6408;59.388;17.798;2022-12-05T14:22:32;8.20;;;3.57;;
12687;SDS011;6408;59.388;17.798;2022-12-05T14:28:11;6.80;;;3.07;;
12687;SDS011;6408;59.388;17.798;2022-12-05T14:31:07;10.23;;;3.70;;
12687;SDS011;6408;59.388;17.798;2022-12-05T14:34:12;9.03;;;4.10;;
12687;SDS011;6408;59.388;17.798;2022-12-05T14:37:03;9.00;;;4.47;;
12687;SDS011;6408;59.388;17.798;2022-12-05T14:39:43;7.23;;;4.70;;
12687;SDS011;6408;59.388;17.798;2022-12-05T14:42:20;5.73;;;4.20;;
12687;SDS011;6408;59.388;17.798;2022-12-05T14:44:56;9.57;;;3.93;;
12687;SDS011;6408;59.388;17.798;2022-12-05T14:47:31;6.10;;;3.40;;
12687;SDS011;6408;59.388;17.798;2022-12-05T14:58:48;9.20;;;4.10;;
12687;SDS011;6408;59.388;17.798;2022-12-05T15:01:42;6.23;;;4.07;;
12687;SDS011;6408;59.388;17.798;2022-12-05T15:04:30;12.37;;;5.73;;
12687;SDS011;6408;59.388;17.798;2022-12-05T15:07:06;9.13;;;3.90;;
12687;SDS011;6408;59.388;17.798;2022-12-05T15:09:45;4.93;;;3.47;;
12687;SDS011;6408;59.388;17.798;2022-12-05T15:12:31;5.87;;;3.80;;
12687;SDS011;6408;59.388;17.798;2022-12-05T15:17:53;7.80;;;4.40;;
12687;SDS011;6408;59.388;17.798;2022-12-05T15:20:32;9.30;;;4.63;;
12687;SDS011;6408;59.388;17.798;2022-12-05T15:26:18;10.27;;;4.70;;
12687;SDS011;6408;59.388;17.798;2022-12-05T15:29:03;10.73;;;5.70;;
12687;SDS011;6408;59.388;17.798;2022-12-05T15:31:43;13.23;;;5.73;;
12687;SDS011;6408;59.388;17.798;2022-12-05T15:34:16;11.67;;;5.90;;
12687;SDS011;6408;59.388;17.798;2022-12-05T15:36:54;14.30;;;7.13;;
12687;SDS011;6408;59.388;17.798;2022-12-05T15:39:26;14.20;;;8.70;;
12687;SDS011;6408;59.388;17.798;2022-12-05T15:41:54;18.70;;;7.43;;
12687;SDS011;6408;59.388;17.798;2022-12-05T15:44:26;12.97;;;8.00;;
12687;SDS011;6408;59.388;17.798;2022-12-05T15:47:03;13.63;;;8.20;;
12687;SDS011;6408;59.388;17.798;2022-12-05T15:49:55;10.33;;;6.80;;
12687;SDS011;6408;59.388;17.798;2022-12-05T15:52:34;9.60;;;6.37;;
12687;SDS011;6408;59.388;17.798;2022-12-05T15:55:19;8.97;;;6.17;;
12687;SDS011;6408;59.388;17.798;2022-12-05T15:57:57;9.67;;;4.93;;
12687;SDS011;6408;59.388;17.798;2022-12-05T16:03:32;7.00;;;4.93;;
12687;SDS011;6408;59.388;17.798;2022-12-05T16:06:16;6.87;;;5.00;;
12687;SDS011;6408;59.388;17.798;2022-12-05T16:08:58;7.23;;;4.70;;
12687;SDS011;6408;59.388;17.798;2022-12-05T16:11:59;11.30;;;5.87;;
12687;SDS011;6408;59.388;17.798;2022-12-05T16:14:45;10.23;;;6.27;;
12687;SDS011;6408;59.388;17.798;2022-12-05T16:17:51;12.13;;;6.23;;
12687;SDS011;6408;59.388;17.798;2022-12-05T16:20:23;12.60;;;6.47;;
12687;SDS011;6408;59.388;17.798;2022-12-05T16:22:55;12.27;;;6.63;;
12687;SDS011;6408;59.388;17.798;2022-12-05T16:25:38;13.10;;;6.30;;
12687;SDS011;6408;59.388;17.798;2022-12-05T16:28:19;11.67;;;7.70;;
12687;SDS011;6408;59.388;17.798;2022-12-05T16:30:57;12.47;;;7.00;;
12687;SDS011;6408;59.388;17.798;2022-12-05T16:33:29;12.63;;;6.40;;
12687;SDS011;6408;59.388;17.798;2022-12-05T16:36:09;10.10;;;5.60;;
12687;SDS011;6408;59.388;17.798;2022-12-05T16:38:38;11.40;;;5.87;;
12687;SDS011;6408;59.388;17.798;2022-12-05T16:41:12;10.93;;;6.37;;
12687;SDS011;6408;59.388;17.798;2022-12-05T16:43:42;9.10;;;5.53;;
12687;SDS011;6408;59.388;17.798;2022-12-05T16:49:15;10.33;;;5.80;;
12687;SDS011;6408;59.388;17.798;2022-12-05T16:51:57;11.70;;;7.27;;
12687;SDS011;6408;59.388;17.798;2022-12-05T16:54:39;8.93;;;6.47;;
12687;SDS011;6408;59.388;17.798;2022-12-05T16:57:10;13.07;;;5.87;;
12687;SDS011;6408;59.388;17.798;2022-12-05T16:59:40;11.03;;;6.90;;
12687;SDS011;6408;59.388;17.798;2022-12-05T17:02:13;11.50;;;6.93;;
12687;SDS011;6408;59.388;17.798;2022-12-05T17:04:44;11.63;;;6.17;;
12687;SDS011;6408;59.388;17.798;2022-12-05T17:07:22;8.40;;;5.60;;